sensor_id;sensor_type;location;lat;lon;timestamp;pressure;altitude;pressure_sealevel;temperature;humidity
76592;BME280;65481;47.600;19.682;2023-07-02T00:04:08;99238.00;;;20.38;100.00
76592;BME280;65481;47.600;19.682;2023-07-02T00:09:10;99245.41;;;20.41;100.00
76592;BME280;65481;47.600;19.682;2023-07-02T00:14:11;99244.59;;;20.41;100.00
76592;BME280;65481;47.600;19.682;2023-07-02T00:19:14;99240.69;;;20.38;100.00
76592;BME280;65481;47.600;19.682;2023-07-02T00:24:14;99240.19;;;20.36;100.00
76592;BME280;65481;47.600;19.682;2023-07-02T00:29:16;99242.75;;;20.33;100.00
76592;BME280;65481;47.600;19.682;2023-07-02T00:34:17;99240.53;;;20.35;100.00
76592;BME280;65481;47.600;19.682;2023-07-02T00:39:18;99244.47;;;20.37;100.00
76592;BME280;65481;47.600;19.682;2023-07-02T00:44:18;99240.03;;;20.41;100.00
76592;BME280;65481;47.600;19.682;2023-07-02T00:49:19;99240.53;;;20.35;100.00
76592;BME280;65481;47.600;19.682;2023-07-02T00:54:20;99242.25;;;20.39;100.00
76592;BME280;65481;47.600;19.682;2023-07-02T00:59:21;99242.25;;;20.48;100.00
76592;BME280;65481;47.600;19.682;2023-07-02T01:04:21;99238.94;;;20.51;100.00
76592;BME280;65481;47.600;19.682;2023-07-02T01:09:27;99240.47;;;20.61;100.00
76592;BME280;65481;47.600;19.682;2023-07-02T01:24:41;99237.31;;;20.68;100.00
76592;BME280;65481;47.600;19.682;2023-07-02T01:29:43;99234.16;;;20.66;100.00
76592;BME280;65481;47.600;19.682;2023-07-02T01:34:45;99228.03;;;20.56;100.00
76592;BME280;65481;47.600;19.682;2023-07-02T01:39:49;99227.38;;;20.60;100.00
76592;BME280;65481;47.600;19.682;2023-07-02T01:44:49;99225.34;;;20.56;100.00
76592;BME280;65481;47.600;19.682;2023-07-02T01:49:51;99222.53;;;20.53;100.00
76592;BME280;65481;47.600;19.682;2023-07-02T01:54:52;99217.97;;;20.45;100.00
76592;BME280;65481;47.600;19.682;2023-07-02T01:59:52;99217.66;;;20.46;100.00
76592;BME280;65481;47.600;19.682;2023-07-02T02:04:53;99215.44;;;20.48;100.00
76592;BME280;65481;47.600;19.682;2023-07-02T02:09:53;99227.28;;;20.38;100.00
76592;BME280;65481;47.600;19.682;2023-07-02T02:14:54;99220.81;;;20.39;100.00
76592;BME280;65481;47.600;19.682;2023-07-02T02:19:54;99221.13;;;20.38;100.00
76592;BME280;65481;47.600;19.682;2023-07-02T02:24:55;99223.03;;;20.28;100.00
76592;BME280;65481;47.600;19.682;2023-07-02T02:29:55;99217.38;;;20.21;100.00
76592;BME280;65481;47.600;19.682;2023-07-02T02:34:56;99218.16;;;20.22;100.00
76592;BME280;65481;47.600;19.682;2023-07-02T02:39:57;99220.66;;;20.18;100.00
76592;BME280;65481;47.600;19.682;2023-07-02T02:44:58;99214.69;;;20.12;100.00
76592;BME280;65481;47.600;19.682;2023-07-02T02:49:59;99217.09;;;20.05;100.00
76592;BME280;65481;47.600;19.682;2023-07-02T02:54:59;99216.44;;;20.00;100.00
76592;BME280;65481;47.600;19.682;2023-07-02T03:00:00;99219.28;;;19.94;100.00
76592;BME280;65481;47.600;19.682;2023-07-02T03:05:01;99223.38;;;19.92;100.00
76592;BME280;65481;47.600;19.682;2023-07-02T03:10:03;99221.94;;;19.86;100.00
76592;BME280;65481;47.600;19.682;2023-07-02T03:15:04;99235.94;;;19.82;100.00
76592;BME280;65481;47.600;19.682;2023-07-02T03:20:06;99221.47;;;19.75;100.00
76592;BME280;65481;47.600;19.682;2023-07-02T03:25:10;99219.25;;;19.86;100.00
76592;BME280;65481;47.600;19.682;2023-07-02T03:30:10;99217.56;;;19.99;100.00
76592;BME280;65481;47.600;19.682;2023-07-02T03:35:11;99223.06;;;19.93;100.00
76592;BME280;65481;47.600;19.682;2023-07-02T03:40:11;99223.22;;;19.88;100.00
76592;BME280;65481;47.600;19.682;2023-07-02T03:45:12;99231.09;;;19.93;100.00
76592;BME280;65481;47.600;19.682;2023-07-02T03:50:13;99230.00;;;19.94;100.00
76592;BME280;65481;47.600;19.682;2023-07-02T03:55:13;99230.78;;;20.04;100.00
76592;BME280;65481;47.600;19.682;2023-07-02T04:00:14;99242.28;;;20.04;100.00
76592;BME280;65481;47.600;19.682;2023-07-02T04:05:14;99238.66;;;20.18;100.00
76592;BME280;65481;47.600;19.682;2023-07-02T04:10:15;99240.06;;;20.24;100.00
76592;BME280;65481;47.600;19.682;2023-07-02T04:15:15;99246.50;;;20.40;100.00
76592;BME280;65481;47.600;19.682;2023-07-02T04:20:16;99251.66;;;20.63;100.00
76592;BME280;65481;47.600;19.682;2023-07-02T04:25:19;99257.78;;;20.81;100.00
76592;BME280;65481;47.600;19.682;2023-07-02T04:30:19;99259.34;;;20.91;100.00
76592;BME280;65481;47.600;19.682;2023-07-02T04:35:20;99265.78;;;20.99;100.00
76592;BME280;65481;47.600;19.682;2023-07-02T04:40:20;99266.94;;;21.19;100.00
76592;BME280;65481;47.600;19.682;2023-07-02T04:45:21;99274.78;;;21.33;100.00
76592;BME280;65481;47.600;19.682;2023-07-02T04:50:21;99278.94;;;21.52;100.00
76592;BME280;65481;47.600;19.682;2023-07-02T04:55:21;99284.09;;;21.66;100.00
76592;BME280;65481;47.600;19.682;2023-07-02T05:00:22;99282.28;;;21.78;100.00
76592;BME280;65481;47.600;19.682;2023-07-02T05:05:22;99289.41;;;21.74;100.00
76592;BME280;65481;47.600;19.682;2023-07-02T05:10:23;99292.69;;;22.01;100.00
76592;BME280;65481;47.600;19.682;2023-07-02T05:15:24;99295.25;;;22.19;100.00
76592;BME280;65481;47.600;19.682;2023-07-02T05:20:25;99296.53;;;22.55;100.00
76592;BME280;65481;47.600;19.682;2023-07-02T05:25:25;99295.75;;;22.88;100.00
76592;BME280;65481;47.600;19.682;2023-07-02T05:30:26;99309.00;;;23.06;100.00
76592;BME280;65481;47.600;19.682;2023-07-02T05:35:27;99301.56;;;23.36;100.00
76592;BME280;65481;47.600;19.682;2023-07-02T05:40:28;99311.50;;;23.73;97.47
76592;BME280;65481;47.600;19.682;2023-07-02T05:45:29;99303.47;;;24.42;94.12
76592;BME280;65481;47.600;19.682;2023-07-02T05:50:29;99309.16;;;25.14;89.68
76592;BME280;65481;47.600;19.682;2023-07-02T05:55:30;99311.00;;;25.09;88.67
76592;BME280;65481;47.600;19.682;2023-07-02T06:00:30;99310.72;;;25.31;87.18
76592;BME280;65481;47.600;19.682;2023-07-02T06:05:31;99314.97;;;25.48;85.65
76592;BME280;65481;47.600;19.682;2023-07-02T06:10:31;99307.06;;;25.55;83.67
76592;BME280;65481;47.600;19.682;2023-07-02T06:15:32;99311.94;;;25.85;78.39
76592;BME280;65481;47.600;19.682;2023-07-02T06:20:32;99312.31;;;25.83;78.01
76592;BME280;65481;47.600;19.682;2023-07-02T06:25:33;99312.69;;;25.66;79.24
76592;BME280;65481;47.600;19.682;2023-07-02T06:30:33;99316.88;;;25.99;79.09
76592;BME280;65481;47.600;19.682;2023-07-02T06:35:34;99323.16;;;27.32;72.83
76592;BME280;65481;47.600;19.682;2023-07-02T06:40:34;99316.50;;;28.40;65.99
76592;BME280;65481;47.600;19.682;2023-07-02T06:45:35;99316.91;;;29.25;61.30
76592;BME280;65481;47.600;19.682;2023-07-02T06:50:35;99314.63;;;29.94;56.45
76592;BME280;65481;47.600;19.682;2023-07-02T06:55:36;99317.13;;;30.46;54.44
76592;BME280;65481;47.600;19.682;2023-07-02T07:00:36;99327.34;;;31.44;51.26
76592;BME280;65481;47.600;19.682;2023-07-02T07:05:37;99326.03;;;32.02;49.29
76592;BME280;65481;47.600;19.682;2023-07-02T07:10:37;99325.94;;;32.21;46.99
76592;BME280;65481;47.600;19.682;2023-07-02T07:15:38;99327.66;;;32.63;44.10
76592;BME280;65481;47.600;19.682;2023-07-02T07:20:41;99333.69;;;32.37;44.49
76592;BME280;65481;47.600;19.682;2023-07-02T07:25:42;99340.78;;;32.87;43.05
76592;BME280;65481;47.600;19.682;2023-07-02T07:30:43;99344.91;;;32.46;43.06
76592;BME280;65481;47.600;19.682;2023-07-02T07:35:43;99334.88;;;32.92;41.65
76592;BME280;65481;47.600;19.682;2023-07-02T07:40:44;99344.06;;;33.16;41.02
76592;BME280;65481;47.600;19.682;2023-07-02T07:45:45;99345.25;;;32.59;41.66
76592;BME280;65481;47.600;19.682;2023-07-02T07:50:45;99349.53;;;31.46;44.07
76592;BME280;65481;47.600;19.682;2023-07-02T07:55:46;99349.53;;;31.17;45.09
76592;BME280;65481;47.600;19.682;2023-07-02T08:00:46;99339.72;;;31.92;43.11
76592;BME280;65481;47.600;19.682;2023-07-02T08:05:47;99348.63;;;32.85;40.42
76592;BME280;65481;47.600;19.682;2023-07-02T08:10:48;99354.84;;;32.85;39.07
76592;BME280;65481;47.600;19.682;2023-07-02T08:15:50;99355.25;;;33.36;38.36
76592;BME280;65481;47.600;19.682;2023-07-02T08:20:50;99351.41;;;33.68;35.79
76592;BME280;65481;47.600;19.682;2023-07-02T08:25:51;99356.13;;;33.64;34.45
76592;BME280;65481;47.600;19.682;2023-07-02T08:30:51;99356.59;;;33.94;34.38
76592;BME280;65481;47.600;19.682;2023-07-02T08:35:52;99350.19;;;34.39;32.56
76592;BME280;65481;47.600;19.682;2023-07-02T08:40:52;99360.72;;;34.40;32.97
76592;BME280;65481;47.600;19.682;2023-07-02T08:45:53;99355.22;;;34.71;32.60
76592;BME280;65481;47.600;19.682;2023-07-02T08:50:53;99354.78;;;35.00;31.81
76592;BME280;65481;47.600;19.682;2023-07-02T08:55:54;99360.97;;;35.52;29.85
76592;BME280;65481;47.600;19.682;2023-07-02T09:01:08;99375.13;;;35.03;29.20
76592;BME280;65481;47.600;19.682;2023-07-02T09:06:10;99363.72;;;35.28;28.91
76592;BME280;65481;47.600;19.682;2023-07-02T09:11:13;99355.06;;;35.30;28.47
76592;BME280;65481;47.600;19.682;2023-07-02T09:16:27;99367.41;;;35.86;26.90
76592;BME280;65481;47.600;19.682;2023-07-02T09:21:58;99363.94;;;36.22;27.11
76592;BME280;65481;47.600;19.682;2023-07-02T09:27:02;99361.19;;;35.82;27.52
76592;BME280;65481;47.600;19.682;2023-07-02T09:32:04;99368.50;;;34.73;27.76
76592;BME280;65481;47.600;19.682;2023-07-02T09:37:07;99366.91;;;34.76;28.28
76592;BME280;65481;47.600;19.682;2023-07-02T09:42:08;99371.53;;;34.79;27.90
76592;BME280;65481;47.600;19.682;2023-07-02T09:47:12;99374.69;;;35.52;26.50
76592;BME280;65481;47.600;19.682;2023-07-02T09:52:14;99378.41;;;34.94;27.60
76592;BME280;65481;47.600;19.682;2023-07-02T09:57:14;99379.94;;;34.68;29.96
76592;BME280;65481;47.600;19.682;2023-07-02T10:02:16;99384.22;;;36.28;29.08
76592;BME280;65481;47.600;19.682;2023-07-02T10:07:37;99384.59;;;37.00;29.04
76592;BME280;65481;47.600;19.682;2023-07-02T10:12:45;99383.75;;;37.03;27.53
76592;BME280;65481;47.600;19.682;2023-07-02T10:17:55;99385.72;;;37.19;27.09
76592;BME280;65481;47.600;19.682;2023-07-02T10:22:56;99384.75;;;36.76;25.46
76592;BME280;65481;47.600;19.682;2023-07-02T10:27:57;99379.09;;;36.10;24.80
76592;BME280;65481;47.600;19.682;2023-07-02T10:33:13;99380.63;;;35.91;25.55
76592;BME280;65481;47.600;19.682;2023-07-02T10:38:24;99379.56;;;36.62;26.39
76592;BME280;65481;47.600;19.682;2023-07-02T10:43:29;99376.31;;;36.67;27.52
76592;BME280;65481;47.600;19.682;2023-07-02T10:48:30;99372.16;;;36.95;27.72
76592;BME280;65481;47.600;19.682;2023-07-02T10:53:31;99366.72;;;37.08;27.64
76592;BME280;65481;47.600;19.682;2023-07-02T10:58:42;99371.41;;;36.58;26.54
76592;BME280;65481;47.600;19.682;2023-07-02T11:03:43;99364.38;;;36.20;27.12
76592;BME280;65481;47.600;19.682;2023-07-02T11:08:43;99356.81;;;36.45;27.18
76592;BME280;65481;47.600;19.682;2023-07-02T11:13:45;99350.78;;;35.73;27.44
76592;BME280;65481;47.600;19.682;2023-07-02T11:19:06;99344.81;;;35.78;27.46
76592;BME280;65481;47.600;19.682;2023-07-02T11:24:10;99348.78;;;35.97;27.01
76592;BME280;65481;47.600;19.682;2023-07-02T11:29:11;99340.19;;;35.55;27.54
76592;BME280;65481;47.600;19.682;2023-07-02T11:34:18;99339.53;;;34.99;29.38
76592;BME280;65481;47.600;19.682;2023-07-02T11:39:19;99331.66;;;35.49;28.94
76592;BME280;65481;47.600;19.682;2023-07-02T11:44:19;99335.66;;;35.44;29.12
76592;BME280;65481;47.600;19.682;2023-07-02T11:49:20;99341.53;;;35.67;27.99
76592;BME280;65481;47.600;19.682;2023-07-02T11:54:20;99346.97;;;35.46;28.69
76592;BME280;65481;47.600;19.682;2023-07-02T11:59:21;99337.84;;;35.53;29.00
76592;BME280;65481;47.600;19.682;2023-07-02T12:04:21;99338.47;;;35.17;28.80
76592;BME280;65481;47.600;19.682;2023-07-02T12:09:22;99343.09;;;35.20;29.14
76592;BME280;65481;47.600;19.682;2023-07-02T12:14:22;99339.09;;;34.77;29.64
76592;BME280;65481;47.600;19.682;2023-07-02T12:19:23;99339.16;;;34.46;29.91
76592;BME280;65481;47.600;19.682;2023-07-02T12:24:23;99347.94;;;34.61;30.08
76592;BME280;65481;47.600;19.682;2023-07-02T12:29:25;99341.13;;;34.15;29.67
76592;BME280;65481;47.600;19.682;2023-07-02T12:34:25;99345.19;;;33.22;30.94
76592;BME280;65481;47.600;19.682;2023-07-02T12:39:27;99345.38;;;33.85;31.26
76592;BME280;65481;47.600;19.682;2023-07-02T12:44:27;99349.94;;;34.26;30.38
76592;BME280;65481;47.600;19.682;2023-07-02T12:49:28;99355.28;;;34.37;30.02
76592;BME280;65481;47.600;19.682;2023-07-02T12:54:28;99359.00;;;34.23;30.06
76592;BME280;65481;47.600;19.682;2023-07-02T12:59:29;99342.84;;;34.32;29.85
76592;BME280;65481;47.600;19.682;2023-07-02T13:04:29;99356.91;;;34.03;29.63
76592;BME280;65481;47.600;19.682;2023-07-02T13:09:30;99358.09;;;33.64;29.69
76592;BME280;65481;47.600;19.682;2023-07-02T13:14:31;99362.56;;;33.47;30.00
76592;BME280;65481;47.600;19.682;2023-07-02T13:19:33;99350.88;;;33.81;30.30
76592;BME280;65481;47.600;19.682;2023-07-02T13:24:34;99359.16;;;33.74;30.66
76592;BME280;65481;47.600;19.682;2023-07-02T13:29:38;99378.50;;;33.94;30.22
76592;BME280;65481;47.600;19.682;2023-07-02T13:34:39;99379.22;;;33.60;30.81
76592;BME280;65481;47.600;19.682;2023-07-02T13:39:40;99382.16;;;32.85;31.47
76592;BME280;65481;47.600;19.682;2023-07-02T13:44:42;99383.09;;;32.57;32.04
76592;BME280;65481;47.600;19.682;2023-07-02T13:49:43;99378.72;;;33.27;31.11
76592;BME280;65481;47.600;19.682;2023-07-02T13:54:44;99374.03;;;33.27;31.24
76592;BME280;65481;47.600;19.682;2023-07-02T13:59:45;99368.50;;;33.38;31.25
76592;BME280;65481;47.600;19.682;2023-07-02T14:04:46;99366.44;;;33.49;30.61
76592;BME280;65481;47.600;19.682;2023-07-02T14:09:47;99372.50;;;32.62;30.50
76592;BME280;65481;47.600;19.682;2023-07-02T14:14:47;99371.28;;;31.78;31.88
76592;BME280;65481;47.600;19.682;2023-07-02T14:19:48;99367.00;;;31.81;31.58
76592;BME280;65481;47.600;19.682;2023-07-02T14:24:49;99368.59;;;31.71;31.06
76592;BME280;65481;47.600;19.682;2023-07-02T14:29:50;99363.88;;;31.86;31.64
76592;BME280;65481;47.600;19.682;2023-07-02T14:34:51;99369.69;;;31.95;31.49
76592;BME280;65481;47.600;19.682;2023-07-02T14:39:51;99365.00;;;31.92;31.08
76592;BME280;65481;47.600;19.682;2023-07-02T14:44:52;99367.00;;;31.74;31.32
76592;BME280;65481;47.600;19.682;2023-07-02T14:49:52;99365.50;;;31.29;32.23
76592;BME280;65481;47.600;19.682;2023-07-02T14:54:53;99359.63;;;31.52;31.66
76592;BME280;65481;47.600;19.682;2023-07-02T14:59:54;99356.16;;;31.30;32.35
76592;BME280;65481;47.600;19.682;2023-07-02T15:04:54;99366.28;;;31.48;32.32
76592;BME280;65481;47.600;19.682;2023-07-02T15:09:55;99365.84;;;31.60;32.10
76592;BME280;65481;47.600;19.682;2023-07-02T15:14:55;99371.31;;;31.56;32.56
76592;BME280;65481;47.600;19.682;2023-07-02T15:19:56;99381.84;;;31.22;32.66
76592;BME280;65481;47.600;19.682;2023-07-02T15:24:58;99371.69;;;30.97;32.62
76592;BME280;65481;47.600;19.682;2023-07-02T15:29:59;99372.47;;;31.01;33.26
76592;BME280;65481;47.600;19.682;2023-07-02T15:34:59;99368.84;;;30.43;33.77
76592;BME280;65481;47.600;19.682;2023-07-02T15:40:00;99367.22;;;30.27;34.70
76592;BME280;65481;47.600;19.682;2023-07-02T15:45:01;99380.38;;;30.11;34.70
76592;BME280;65481;47.600;19.682;2023-07-02T15:50:01;99385.41;;;30.09;34.66
76592;BME280;65481;47.600;19.682;2023-07-02T15:55:02;99393.78;;;29.82;35.03
76592;BME280;65481;47.600;19.682;2023-07-02T16:00:03;99398.72;;;29.65;35.07
76592;BME280;65481;47.600;19.682;2023-07-02T16:05:04;99395.66;;;29.70;35.48
76592;BME280;65481;47.600;19.682;2023-07-02T16:10:05;99400.59;;;29.57;35.47
76592;BME280;65481;47.600;19.682;2023-07-02T16:15:06;99409.69;;;29.31;36.44
76592;BME280;65481;47.600;19.682;2023-07-02T16:20:07;99415.03;;;29.20;35.54
76592;BME280;65481;47.600;19.682;2023-07-02T16:25:08;99420.34;;;29.09;34.68
76592;BME280;65481;47.600;19.682;2023-07-02T16:30:09;99417.16;;;29.00;34.61
76592;BME280;65481;47.600;19.682;2023-07-02T16:35:10;99419.38;;;28.87;34.89
76592;BME280;65481;47.600;19.682;2023-07-02T16:40:10;99427.69;;;28.71;35.25
76592;BME280;65481;47.600;19.682;2023-07-02T16:45:11;99427.91;;;28.55;35.83
76592;BME280;65481;47.600;19.682;2023-07-02T16:50:12;99430.38;;;28.37;36.38
76592;BME280;65481;47.600;19.682;2023-07-02T16:55:12;99426.25;;;28.16;35.92
76592;BME280;65481;47.600;19.682;2023-07-02T17:00:14;99449.94;;;27.96;36.67
76592;BME280;65481;47.600;19.682;2023-07-02T17:05:15;99443.19;;;27.83;36.90
76592;BME280;65481;47.600;19.682;2023-07-02T17:10:16;99450.75;;;27.73;37.45
76592;BME280;65481;47.600;19.682;2023-07-02T17:15:17;99461.81;;;27.61;37.89
76592;BME280;65481;47.600;19.682;2023-07-02T17:20:17;99466.38;;;27.57;38.40
76592;BME280;65481;47.600;19.682;2023-07-02T17:25:18;99465.94;;;27.55;38.92
76592;BME280;65481;47.600;19.682;2023-07-02T17:30:19;99465.84;;;27.47;39.68
76592;BME280;65481;47.600;19.682;2023-07-02T17:35:20;99466.53;;;27.44;40.16
76592;BME280;65481;47.600;19.682;2023-07-02T17:40:21;99470.31;;;27.40;40.88
76592;BME280;65481;47.600;19.682;2023-07-02T17:45:22;99469.41;;;27.32;42.04
76592;BME280;65481;47.600;19.682;2023-07-02T17:50:23;99473.91;;;27.24;42.80
76592;BME280;65481;47.600;19.682;2023-07-02T17:55:24;99479.13;;;27.13;43.66
76592;BME280;65481;47.600;19.682;2023-07-02T18:00:25;99479.88;;;26.90;45.10
76592;BME280;65481;47.600;19.682;2023-07-02T18:05:26;99487.78;;;26.64;46.26
76592;BME280;65481;47.600;19.682;2023-07-02T18:10:26;99480.88;;;26.47;46.83
76592;BME280;65481;47.600;19.682;2023-07-02T18:15:27;99486.50;;;26.38;47.35
76592;BME280;65481;47.600;19.682;2023-07-02T18:20:28;99492.78;;;26.26;48.04
76592;BME280;65481;47.600;19.682;2023-07-02T18:25:30;99498.81;;;26.03;48.84
76592;BME280;65481;47.600;19.682;2023-07-02T18:30:30;99506.75;;;25.80;49.75
76592;BME280;65481;47.600;19.682;2023-07-02T18:35:35;99513.63;;;25.61;49.96
76592;BME280;65481;47.600;19.682;2023-07-02T18:40:38;99521.50;;;25.38;50.15
76592;BME280;65481;47.600;19.682;2023-07-02T18:45:39;99533.47;;;25.24;50.55
76592;BME280;65481;47.600;19.682;2023-07-02T18:50:40;99536.44;;;25.07;50.38
76592;BME280;65481;47.600;19.682;2023-07-02T18:55:40;99547.59;;;24.93;51.25
76592;BME280;65481;47.600;19.682;2023-07-02T19:00:41;99551.47;;;24.79;51.37
76592;BME280;65481;47.600;19.682;2023-07-02T19:05:42;99556.22;;;24.70;51.92
76592;BME280;65481;47.600;19.682;2023-07-02T19:10:44;99571.25;;;24.46;53.11
76592;BME280;65481;47.600;19.682;2023-07-02T19:15:45;99569.56;;;24.29;53.72
76592;BME280;65481;47.600;19.682;2023-07-02T19:20:46;99582.59;;;24.15;53.93
76592;BME280;65481;47.600;19.682;2023-07-02T19:25:52;99587.06;;;24.11;54.30
76592;BME280;65481;47.600;19.682;2023-07-02T19:30:53;99599.91;;;23.93;55.30
76592;BME280;65481;47.600;19.682;2023-07-02T19:35:57;99602.91;;;23.79;56.33
76592;BME280;65481;47.600;19.682;2023-07-02T19:40:58;99612.72;;;23.62;57.17
76592;BME280;65481;47.600;19.682;2023-07-02T19:46:00;99620.44;;;23.51;57.24
76592;BME280;65481;47.600;19.682;2023-07-02T19:51:04;99627.47;;;23.43;57.55
76592;BME280;65481;47.600;19.682;2023-07-02T19:56:06;99626.28;;;23.32;58.00
76592;BME280;65481;47.600;19.682;2023-07-02T20:01:12;99633.44;;;23.28;57.42
76592;BME280;65481;47.600;19.682;2023-07-02T20:06:13;99632.19;;;23.25;57.29
76592;BME280;65481;47.600;19.682;2023-07-02T20:11:14;99636.66;;;23.21;57.67
76592;BME280;65481;47.600;19.682;2023-07-02T20:16:15;99645.06;;;23.11;57.80
76592;BME280;65481;47.600;19.682;2023-07-02T20:21:16;99646.19;;;23.10;57.86
76592;BME280;65481;47.600;19.682;2023-07-02T20:26:17;99654.00;;;23.03;58.21
76592;BME280;65481;47.600;19.682;2023-07-02T20:31:18;99651.66;;;22.92;58.41
76592;BME280;65481;47.600;19.682;2023-07-02T20:36:19;99644.09;;;22.86;58.40
76592;BME280;65481;47.600;19.682;2023-07-02T20:41:23;99648.88;;;22.80;58.66
76592;BME280;65481;47.600;19.682;2023-07-02T20:46:27;99658.72;;;22.76;59.14
76592;BME280;65481;47.600;19.682;2023-07-02T20:51:32;99669.84;;;22.65;59.53
76592;BME280;65481;47.600;19.682;2023-07-02T20:56:33;99678.53;;;22.62;59.95
76592;BME280;65481;47.600;19.682;2023-07-02T21:01:34;99682.38;;;22.52;60.26
76592;BME280;65481;47.600;19.682;2023-07-02T21:06:36;99680.81;;;22.43;60.90
76592;BME280;65481;47.600;19.682;2023-07-02T21:11:37;99680.34;;;22.32;61.45
76592;BME280;65481;47.600;19.682;2023-07-02T21:16:38;99684.50;;;22.20;61.81
76592;BME280;65481;47.600;19.682;2023-07-02T21:21:38;99687.19;;;22.12;62.11
76592;BME280;65481;47.600;19.682;2023-07-02T21:26:43;99687.69;;;21.96;63.07
76592;BME280;65481;47.600;19.682;2023-07-02T21:31:43;99695.91;;;21.91;63.52
76592;BME280;65481;47.600;19.682;2023-07-02T21:36:44;99708.38;;;21.87;63.67
76592;BME280;65481;47.600;19.682;2023-07-02T21:41:44;99721.34;;;21.85;63.70
76592;BME280;65481;47.600;19.682;2023-07-02T21:46:47;99722.13;;;21.76;63.67
76592;BME280;65481;47.600;19.682;2023-07-02T21:51:48;99724.50;;;21.69;64.10
76592;BME280;65481;47.600;19.682;2023-07-02T21:56:48;99739.34;;;21.67;63.96
76592;BME280;65481;47.600;19.682;2023-07-02T22:01:50;99733.34;;;21.61;63.82
76592;BME280;65481;47.600;19.682;2023-07-02T22:06:51;99739.31;;;21.58;63.52
76592;BME280;65481;47.600;19.682;2023-07-02T22:11:51;99747.81;;;21.51;63.94
76592;BME280;65481;47.600;19.682;2023-07-02T22:16:52;99754.91;;;21.47;64.10
76592;BME280;65481;47.600;19.682;2023-07-02T22:21:57;99747.31;;;21.40;63.90
76592;BME280;65481;47.600;19.682;2023-07-02T22:26:58;99749.19;;;21.31;64.45
76592;BME280;65481;47.600;19.682;2023-07-02T22:31:58;99750.72;;;21.23;64.54
76592;BME280;65481;47.600;19.682;2023-07-02T22:36:59;99753.88;;;21.16;64.70
76592;BME280;65481;47.600;19.682;2023-07-02T22:41:59;99755.09;;;21.10;64.93
76592;BME280;65481;47.600;19.682;2023-07-02T22:47:00;99754.78;;;21.03;65.20
76592;BME280;65481;47.600;19.682;2023-07-02T22:52:00;99753.44;;;20.92;65.72
76592;BME280;65481;47.600;19.682;2023-07-02T22:57:03;99763.34;;;20.82;66.25
76592;BME280;65481;47.600;19.682;2023-07-02T23:02:04;99774.63;;;20.70;66.93
76592;BME280;65481;47.600;19.682;2023-07-02T23:07:04;99772.69;;;20.62;67.21
76592;BME280;65481;47.600;19.682;2023-07-02T23:12:06;99768.97;;;20.49;67.92
76592;BME280;65481;47.600;19.682;2023-07-02T23:17:07;99778.34;;;20.38;68.28
76592;BME280;65481;47.600;19.682;2023-07-02T23:22:07;99776.63;;;20.19;69.42
76592;BME280;65481;47.600;19.682;2023-07-02T23:27:08;99775.78;;;20.10;69.71
76592;BME280;65481;47.600;19.682;2023-07-02T23:32:09;99779.59;;;19.95;70.48
76592;BME280;65481;47.600;19.682;2023-07-02T23:37:09;99777.81;;;19.76;71.48
76592;BME280;65481;47.600;19.682;2023-07-02T23:42:10;99778.94;;;19.61;72.54
76592;BME280;65481;47.600;19.682;2023-07-02T23:47:11;99779.63;;;19.53;73.80
76592;BME280;65481;47.600;19.682;2023-07-02T23:52:11;99775.47;;;19.47;74.42
76592;BME280;65481;47.600;19.682;2023-07-02T23:57:12;99774.00;;;19.41;75.16
